sensor_id;sensor_type;location;lat;lon;timestamp;pressure;altitude;pressure_sealevel;temperature;humidity
71004;BME280;59025;42.050;-8.660;2022-12-18T00:02:17;101158.41;;;12.67;100.00
71004;BME280;59025;42.050;-8.660;2022-12-18T00:04:45;101168.34;;;12.70;100.00
71004;BME280;59025;42.050;-8.660;2022-12-18T00:07:14;101175.91;;;12.78;100.00
71004;BME280;59025;42.050;-8.660;2022-12-18T00:09:41;101164.97;;;12.76;100.00
71004;BME280;59025;42.050;-8.660;2022-12-18T00:12:09;101173.91;;;12.86;100.00
71004;BME280;59025;42.050;-8.660;2022-12-18T00:14:36;101162.97;;;12.91;100.00
71004;BME280;59025;42.050;-8.660;2022-12-18T00:17:04;101166.75;;;12.88;100.00
71004;BME280;59025;42.050;-8.660;2022-12-18T00:19:31;101163.78;;;12.91;100.00
71004;BME280;59025;42.050;-8.660;2022-12-18T00:21:59;101156.44;;;12.88;100.00
71004;BME280;59025;42.050;-8.660;2022-12-18T00:24:28;101156.81;;;12.85;100.00
71004;BME280;59025;42.050;-8.660;2022-12-18T00:26:55;101157.41;;;12.93;100.00
71004;BME280;59025;42.050;-8.660;2022-12-18T00:29:23;101147.06;;;12.93;100.00
71004;BME280;59025;42.050;-8.660;2022-12-18T00:31:50;101140.34;;;12.99;100.00
71004;BME280;59025;42.050;-8.660;2022-12-18T00:34:18;101131.03;;;12.98;100.00
71004;BME280;59025;42.050;-8.660;2022-12-18T00:36:47;101123.09;;;13.00;100.00
71004;BME280;59025;42.050;-8.660;2022-12-18T00:39:15;101133.00;;;12.96;100.00
71004;BME280;59025;42.050;-8.660;2022-12-18T00:41:44;101139.16;;;13.02;100.00
71004;BME280;59025;42.050;-8.660;2022-12-18T00:44:29;101137.19;;;12.97;100.00
71004;BME280;59025;42.050;-8.660;2022-12-18T00:46:56;101146.88;;;12.95;100.00
71004;BME280;59025;42.050;-8.660;2022-12-18T00:49:24;101143.34;;;12.96;100.00
71004;BME280;59025;42.050;-8.660;2022-12-18T00:51:51;101144.94;;;12.97;100.00
71004;BME280;59025;42.050;-8.660;2022-12-18T00:54:19;101139.34;;;12.87;100.00
71004;BME280;59025;42.050;-8.660;2022-12-18T00:56:48;101135.78;;;13.01;100.00
71004;BME280;59025;42.050;-8.660;2022-12-18T00:59:15;101129.84;;;13.01;100.00
71004;BME280;59025;42.050;-8.660;2022-12-18T01:01:43;101133.41;;;13.00;100.00
71004;BME280;59025;42.050;-8.660;2022-12-18T01:04:10;101138.94;;;12.90;100.00
71004;BME280;59025;42.050;-8.660;2022-12-18T01:06:38;101140.94;;;12.88;100.00
71004;BME280;59025;42.050;-8.660;2022-12-18T01:09:05;101137.97;;;12.85;100.00
71004;BME280;59025;42.050;-8.660;2022-12-18T01:11:33;101131.78;;;12.79;100.00
71004;BME280;59025;42.050;-8.660;2022-12-18T01:14:02;101121.06;;;12.82;100.00
71004;BME280;59025;42.050;-8.660;2022-12-18T01:16:29;101115.88;;;12.95;100.00
71004;BME280;59025;42.050;-8.660;2022-12-18T01:18:57;101099.81;;;12.93;100.00
71004;BME280;59025;42.050;-8.660;2022-12-18T01:21:24;101118.66;;;12.93;100.00
71004;BME280;59025;42.050;-8.660;2022-12-18T01:23:53;101122.47;;;12.98;100.00
71004;BME280;59025;42.050;-8.660;2022-12-18T01:26:21;101127.84;;;13.03;100.00
71004;BME280;59025;42.050;-8.660;2022-12-18T01:28:49;101126.63;;;12.99;100.00
71004;BME280;59025;42.050;-8.660;2022-12-18T01:31:20;101124.66;;;13.01;100.00
71004;BME280;59025;42.050;-8.660;2022-12-18T01:33:48;101130.63;;;13.14;100.00
71004;BME280;59025;42.050;-8.660;2022-12-18T01:36:18;101134.19;;;13.07;100.00
71004;BME280;59025;42.050;-8.660;2022-12-18T01:38:46;101135.78;;;13.08;100.00
71004;BME280;59025;42.050;-8.660;2022-12-18T01:41:15;101130.22;;;13.04;100.00
71004;BME280;59025;42.050;-8.660;2022-12-18T01:43:52;101139.16;;;13.02;100.00
71004;BME280;59025;42.050;-8.660;2022-12-18T01:46:23;101129.22;;;12.99;100.00
71004;BME280;59025;42.050;-8.660;2022-12-18T01:48:52;101123.81;;;12.93;100.00
71004;BME280;59025;42.050;-8.660;2022-12-18T01:51:21;101123.63;;;12.95;100.00
71004;BME280;59025;42.050;-8.660;2022-12-18T01:53:48;101126.63;;;12.99;100.00
71004;BME280;59025;42.050;-8.660;2022-12-18T01:56:18;101123.81;;;12.93;100.00
71004;BME280;59025;42.050;-8.660;2022-12-18T01:58:52;101127.06;;;12.96;100.00
71004;BME280;59025;42.050;-8.660;2022-12-18T02:01:24;101137.19;;;12.97;100.00
71004;BME280;59025;42.050;-8.660;2022-12-18T02:03:52;101134.59;;;13.04;100.00
71004;BME280;59025;42.050;-8.660;2022-12-18T02:06:23;101119.09;;;13.04;100.00
71004;BME280;59025;42.050;-8.660;2022-12-18T02:08:59;101132.63;;;13.06;100.00
71004;BME280;59025;42.050;-8.660;2022-12-18T02:11:37;101131.41;;;13.02;100.00
71004;BME280;59025;42.050;-8.660;2022-12-18T02:14:14;101126.44;;;13.07;100.00
71004;BME280;59025;42.050;-8.660;2022-12-18T02:16:52;101124.63;;;13.07;100.00
71004;BME280;59025;42.050;-8.660;2022-12-18T02:22:26;101142.13;;;13.12;100.00
71004;BME280;59025;42.050;-8.660;2022-12-18T02:25:04;101139.38;;;13.07;100.00
71004;BME280;59025;42.050;-8.660;2022-12-18T02:27:37;101139.75;;;13.04;100.00
71004;BME280;59025;42.050;-8.660;2022-12-18T02:30:08;101136.78;;;13.00;100.00
71004;BME280;59025;42.050;-8.660;2022-12-18T02:32:40;101130.22;;;13.04;100.00
71004;BME280;59025;42.050;-8.660;2022-12-18T02:35:11;101136.59;;;13.08;100.00
71004;BME280;59025;42.050;-8.660;2022-12-18T02:37:42;101134.41;;;13.12;100.00
71004;BME280;59025;42.050;-8.660;2022-12-18T02:40:12;101146.13;;;13.08;100.00
71004;BME280;59025;42.050;-8.660;2022-12-18T02:42:43;101154.06;;;13.06;100.00
71004;BME280;59025;42.050;-8.660;2022-12-18T02:45:10;101152.09;;;13.02;100.00
71004;BME280;59025;42.050;-8.660;2022-12-18T02:47:40;101138.97;;;12.97;100.00
71004;BME280;59025;42.050;-8.660;2022-12-18T02:50:14;101150.88;;;12.91;100.00
71004;BME280;59025;42.050;-8.660;2022-12-18T02:52:53;101157.22;;;12.89;100.00
71004;BME280;59025;42.050;-8.660;2022-12-18T02:55:30;101159.59;;;12.90;100.00
71004;BME280;59025;42.050;-8.660;2022-12-18T02:58:05;101147.28;;;12.92;100.00
71004;BME280;59025;42.050;-8.660;2022-12-18T03:00:40;101140.94;;;12.88;100.00
71004;BME280;59025;42.050;-8.660;2022-12-18T03:03:13;101143.13;;;12.85;100.00
71004;BME280;59025;42.050;-8.660;2022-12-18T03:05:45;101149.06;;;12.85;100.00
71004;BME280;59025;42.050;-8.660;2022-12-18T03:08:18;101154.03;;;12.87;100.00
71004;BME280;59025;42.050;-8.660;2022-12-18T03:10:51;101157.59;;;12.79;100.00
71004;BME280;59025;42.050;-8.660;2022-12-18T03:13:26;101164.16;;;12.82;100.00
71004;BME280;59025;42.050;-8.660;2022-12-18T03:15:57;101167.75;;;12.81;100.00
71004;BME280;59025;42.050;-8.660;2022-12-18T03:18:30;101164.97;;;12.82;100.00
71004;BME280;59025;42.050;-8.660;2022-12-18T03:21:04;101176.09;;;12.83;100.00
71004;BME280;59025;42.050;-8.660;2022-12-18T03:23:35;101169.53;;;12.87;100.00
71004;BME280;59025;42.050;-8.660;2022-12-18T03:26:07;101169.72;;;12.85;100.00
71004;BME280;59025;42.050;-8.660;2022-12-18T03:28:42;101168.34;;;12.89;100.00
71004;BME280;59025;42.050;-8.660;2022-12-18T03:31:12;101164.00;;;12.96;100.00
71004;BME280;59025;42.050;-8.660;2022-12-18T03:33:42;101164.59;;;12.98;100.00
71004;BME280;59025;42.050;-8.660;2022-12-18T03:36:12;101170.13;;;12.95;100.00
71004;BME280;59025;42.050;-8.660;2022-12-18T03:38:40;101165.38;;;12.99;100.00
71004;BME280;59025;42.050;-8.660;2022-12-18T03:41:16;101158.81;;;12.96;100.00
71004;BME280;59025;42.050;-8.660;2022-12-18T03:43:50;101150.31;;;12.96;100.00
71004;BME280;59025;42.050;-8.660;2022-12-18T03:46:25;101152.03;;;12.95;100.00
71004;BME280;59025;42.050;-8.660;2022-12-18T03:49:00;101153.84;;;13.01;100.00
71004;BME280;59025;42.050;-8.660;2022-12-18T03:51:36;101139.94;;;13.02;100.00
71004;BME280;59025;42.050;-8.660;2022-12-18T03:54:05;101144.53;;;13.07;100.00
71004;BME280;59025;42.050;-8.660;2022-12-18T03:56:37;101156.84;;;13.05;100.00
71004;BME280;59025;42.050;-8.660;2022-12-18T03:59:09;101159.84;;;13.02;100.00
71004;BME280;59025;42.050;-8.660;2022-12-18T04:01:40;101158.06;;;12.96;100.00
71004;BME280;59025;42.050;-8.660;2022-12-18T04:04:10;101159.63;;;12.97;100.00
71004;BME280;59025;42.050;-8.660;2022-12-18T04:06:38;101160.78;;;12.94;100.00
71004;BME280;59025;42.050;-8.660;2022-12-18T04:09:08;101165.16;;;12.93;100.00
71004;BME280;59025;42.050;-8.660;2022-12-18T04:11:36;101160.22;;;12.92;100.00
71004;BME280;59025;42.050;-8.660;2022-12-18T04:14:03;101153.47;;;12.98;100.00
71004;BME280;59025;42.050;-8.660;2022-12-18T04:16:32;101139.56;;;13.05;100.00
71004;BME280;59025;42.050;-8.660;2022-12-18T04:19:00;101134.97;;;13.14;100.00
71004;BME280;59025;42.050;-8.660;2022-12-18T04:21:27;101130.63;;;13.14;100.00
71004;BME280;59025;42.050;-8.660;2022-12-18T04:23:55;101125.22;;;13.16;100.00
71004;BME280;59025;42.050;-8.660;2022-12-18T04:26:22;101121.03;;;13.28;100.00
71004;BME280;59025;42.050;-8.660;2022-12-18T04:28:50;101125.97;;;13.36;100.00
71004;BME280;59025;42.050;-8.660;2022-12-18T04:31:17;101117.47;;;13.29;100.00
71004;BME280;59025;42.050;-8.660;2022-12-18T04:33:46;101122.59;;;13.35;100.00
71004;BME280;59025;42.050;-8.660;2022-12-18T04:36:14;101123.81;;;13.26;100.00
71004;BME280;59025;42.050;-8.660;2022-12-18T04:38:41;101128.56;;;13.36;100.00
71004;BME280;59025;42.050;-8.660;2022-12-18T04:41:09;101124.59;;;13.40;100.00
71004;BME280;59025;42.050;-8.660;2022-12-18T04:43:36;101130.34;;;13.35;100.00
71004;BME280;59025;42.050;-8.660;2022-12-18T04:46:05;101130.97;;;13.37;100.00
71004;BME280;59025;42.050;-8.660;2022-12-18T04:48:33;101123.78;;;13.32;100.00
71004;BME280;59025;42.050;-8.660;2022-12-18T04:51:03;101120.38;;;13.38;100.00
71004;BME280;59025;42.050;-8.660;2022-12-18T04:53:31;101112.44;;;13.40;100.00
71004;BME280;59025;42.050;-8.660;2022-12-18T04:56:06;101094.78;;;13.37;100.00
71004;BME280;59025;42.050;-8.660;2022-12-18T04:58:34;101099.69;;;13.45;100.00
71004;BME280;59025;42.050;-8.660;2022-12-18T05:01:02;101085.81;;;13.40;100.00
71004;BME280;59025;42.050;-8.660;2022-12-18T05:03:30;101081.22;;;13.42;100.00
71004;BME280;59025;42.050;-8.660;2022-12-18T05:05:58;101086.97;;;13.43;100.00
71004;BME280;59025;42.050;-8.660;2022-12-18T05:08:27;101081.78;;;13.50;100.00
71004;BME280;59025;42.050;-8.660;2022-12-18T05:10:58;101076.03;;;13.48;100.00
71004;BME280;59025;42.050;-8.660;2022-12-18T05:13:26;101085.38;;;13.56;100.00
71004;BME280;59025;42.050;-8.660;2022-12-18T05:15:54;101094.72;;;13.50;100.00
71004;BME280;59025;42.050;-8.660;2022-12-18T05:18:22;101068.88;;;13.43;100.00
71004;BME280;59025;42.050;-8.660;2022-12-18T05:20:50;101082.19;;;13.47;100.00
71004;BME280;59025;42.050;-8.660;2022-12-18T05:23:17;101089.53;;;13.50;100.00
71004;BME280;59025;42.050;-8.660;2022-12-18T05:25:51;101080.00;;;13.51;100.00
71004;BME280;59025;42.050;-8.660;2022-12-18T05:28:19;101072.84;;;13.52;100.00
71004;BME280;59025;42.050;-8.660;2022-12-18T05:30:48;101072.66;;;13.48;100.00
71004;BME280;59025;42.050;-8.660;2022-12-18T05:33:16;101077.19;;;13.58;100.00
71004;BME280;59025;42.050;-8.660;2022-12-18T05:35:44;101067.66;;;13.52;100.00
71004;BME280;59025;42.050;-8.660;2022-12-18T05:38:12;101072.47;;;13.49;100.00
71004;BME280;59025;42.050;-8.660;2022-12-18T05:40:41;101075.81;;;13.49;100.00
71004;BME280;59025;42.050;-8.660;2022-12-18T05:43:11;101086.56;;;13.53;100.00
71004;BME280;59025;42.050;-8.660;2022-12-18T05:45:39;101080.41;;;13.48;100.00
71004;BME280;59025;42.050;-8.660;2022-12-18T05:48:07;101072.84;;;13.52;100.00
71004;BME280;59025;42.050;-8.660;2022-12-18T05:50:35;101084.94;;;13.52;100.00
71004;BME280;59025;42.050;-8.660;2022-12-18T05:53:03;101081.41;;;13.53;100.00
71004;BME280;59025;42.050;-8.660;2022-12-18T05:55:33;101075.59;;;13.57;100.00
71004;BME280;59025;42.050;-8.660;2022-12-18T05:58:01;101072.84;;;13.52;100.00
71004;BME280;59025;42.050;-8.660;2022-12-18T06:00:30;101075.22;;;13.54;100.00
71004;BME280;59025;42.050;-8.660;2022-12-18T06:02:57;101067.28;;;13.56;100.00
71004;BME280;59025;42.050;-8.660;2022-12-18T06:05:25;101074.41;;;13.53;100.00
71004;BME280;59025;42.050;-8.660;2022-12-18T06:07:53;101072.44;;;13.56;100.00
71004;BME280;59025;42.050;-8.660;2022-12-18T06:10:20;101073.59;;;13.59;100.00
71004;BME280;59025;42.050;-8.660;2022-12-18T06:12:48;101082.00;;;13.48;100.00
71004;BME280;59025;42.050;-8.660;2022-12-18T06:15:15;101081.00;;;13.49;100.00
71004;BME280;59025;42.050;-8.660;2022-12-18T06:17:44;101083.34;;;13.57;100.00
71004;BME280;59025;42.050;-8.660;2022-12-18T06:20:12;101080.22;;;13.49;100.00
71004;BME280;59025;42.050;-8.660;2022-12-18T06:22:39;101081.16;;;13.54;100.00
71004;BME280;59025;42.050;-8.660;2022-12-18T06:25:07;101077.44;;;13.51;100.00
71004;BME280;59025;42.050;-8.660;2022-12-18T06:27:35;101082.59;;;13.51;100.00
71004;BME280;59025;42.050;-8.660;2022-12-18T06:30:03;101085.78;;;13.46;100.00
71004;BME280;59025;42.050;-8.660;2022-12-18T06:32:31;101069.25;;;13.53;100.00
71004;BME280;59025;42.050;-8.660;2022-12-18T06:35:00;101098.44;;;13.60;100.00
71004;BME280;59025;42.050;-8.660;2022-12-18T06:37:27;101089.47;;;13.69;100.00
71004;BME280;59025;42.050;-8.660;2022-12-18T06:39:55;101100.81;;;13.68;100.00
71004;BME280;59025;42.050;-8.660;2022-12-18T06:42:23;101102.84;;;13.60;100.00
71004;BME280;59025;42.050;-8.660;2022-12-18T06:44:51;101105.41;;;13.60;100.00
71004;BME280;59025;42.050;-8.660;2022-12-18T06:47:18;101104.78;;;13.64;100.00
71004;BME280;59025;42.050;-8.660;2022-12-18T06:49:46;101104.41;;;13.68;100.00
71004;BME280;59025;42.050;-8.660;2022-12-18T06:52:15;101107.75;;;13.74;100.00
71004;BME280;59025;42.050;-8.660;2022-12-18T06:54:42;101104.97;;;13.76;100.00
71004;BME280;59025;42.050;-8.660;2022-12-18T06:57:10;101108.31;;;13.76;100.00
71004;BME280;59025;42.050;-8.660;2022-12-18T06:59:37;101108.94;;;13.78;100.00
71004;BME280;59025;42.050;-8.660;2022-12-18T07:02:05;101096.56;;;13.80;100.00
71004;BME280;59025;42.050;-8.660;2022-12-18T07:04:33;101097.38;;;13.81;100.00
71004;BME280;59025;42.050;-8.660;2022-12-18T07:07:00;101100.38;;;13.78;100.00
71004;BME280;59025;42.050;-8.660;2022-12-18T07:09:29;101094.19;;;13.79;100.00
71004;BME280;59025;42.050;-8.660;2022-12-18T07:11:57;101105.91;;;13.81;100.00
71004;BME280;59025;42.050;-8.660;2022-12-18T07:14:24;101097.31;;;13.87;100.00
71004;BME280;59025;42.050;-8.660;2022-12-18T07:16:52;101106.50;;;13.83;100.00
71004;BME280;59025;42.050;-8.660;2022-12-18T07:19:19;101096.13;;;13.90;100.00
71004;BME280;59025;42.050;-8.660;2022-12-18T07:21:50;101101.28;;;13.90;100.00
71004;BME280;59025;42.050;-8.660;2022-12-18T07:24:17;101104.88;;;13.95;100.00
71004;BME280;59025;42.050;-8.660;2022-12-18T07:26:47;101105.25;;;13.99;100.00
71004;BME280;59025;42.050;-8.660;2022-12-18T07:29:15;101105.25;;;13.99;100.00
71004;BME280;59025;42.050;-8.660;2022-12-18T07:31:42;101115.38;;;14.00;100.00
71004;BME280;59025;42.050;-8.660;2022-12-18T07:34:10;101103.69;;;13.91;100.00
71004;BME280;59025;42.050;-8.660;2022-12-18T07:36:38;101107.66;;;13.94;100.00
71004;BME280;59025;42.050;-8.660;2022-12-18T07:39:06;101110.41;;;13.99;100.00
71004;BME280;59025;42.050;-8.660;2022-12-18T07:41:33;101112.56;;;14.02;100.00
71004;BME280;59025;42.050;-8.660;2022-12-18T07:44:03;101114.41;;;13.95;100.00
71004;BME280;59025;42.050;-8.660;2022-12-18T07:46:30;101105.41;;;14.04;100.00
71004;BME280;59025;42.050;-8.660;2022-12-18T07:48:58;101110.78;;;14.02;100.00
71004;BME280;59025;42.050;-8.660;2022-12-18T07:51:25;101105.72;;;14.14;100.00
71004;BME280;59025;42.050;-8.660;2022-12-18T07:53:53;101103.38;;;14.12;100.00
71004;BME280;59025;42.050;-8.660;2022-12-18T07:56:20;101093.41;;;14.09;100.00
71004;BME280;59025;42.050;-8.660;2022-12-18T07:58:48;101101.19;;;14.09;100.00
71004;BME280;59025;42.050;-8.660;2022-12-18T08:01:17;101097.03;;;14.02;100.00
71004;BME280;59025;42.050;-8.660;2022-12-18T08:03:44;101098.63;;;14.03;100.00
71004;BME280;59025;42.050;-8.660;2022-12-18T08:06:12;101107.19;;;14.03;100.00
71004;BME280;59025;42.050;-8.660;2022-12-18T08:08:39;101114.69;;;14.11;100.00
71004;BME280;59025;42.050;-8.660;2022-12-18T08:11:07;101117.69;;;14.15;100.00
71004;BME280;59025;42.050;-8.660;2022-12-18T08:13:35;101115.88;;;14.15;100.00
71004;BME280;59025;42.050;-8.660;2022-12-18T08:16:04;101122.25;;;14.19;100.00
71004;BME280;59025;42.050;-8.660;2022-12-18T08:18:34;101125.78;;;14.25;100.00
71004;BME280;59025;42.050;-8.660;2022-12-18T08:21:09;101130.75;;;14.26;100.00
71004;BME280;59025;42.050;-8.660;2022-12-18T08:23:37;101127.97;;;14.28;100.00
71004;BME280;59025;42.050;-8.660;2022-12-18T08:26:04;101136.56;;;14.22;100.00
71004;BME280;59025;42.050;-8.660;2022-12-18T08:28:32;101135.94;;;14.26;100.00
71004;BME280;59025;42.050;-8.660;2022-12-18T08:31:00;101135.56;;;14.16;100.00
71004;BME280;59025;42.050;-8.660;2022-12-18T08:33:27;101126.03;;;14.17;100.00
71004;BME280;59025;42.050;-8.660;2022-12-18T08:35:58;101124.03;;;14.19;100.00
71004;BME280;59025;42.050;-8.660;2022-12-18T08:38:25;101121.44;;;14.19;100.00
71004;BME280;59025;42.050;-8.660;2022-12-18T08:40:58;101121.03;;;14.15;100.00
71004;BME280;59025;42.050;-8.660;2022-12-18T08:43:26;101123.38;;;14.30;100.00
71004;BME280;59025;42.050;-8.660;2022-12-18T08:46:11;101126.16;;;14.28;100.00
71004;BME280;59025;42.050;-8.660;2022-12-18T08:48:39;101141.31;;;14.25;100.00
71004;BME280;59025;42.050;-8.660;2022-12-18T08:51:08;101144.72;;;14.25;100.00
71004;BME280;59025;42.050;-8.660;2022-12-18T08:53:36;101154.63;;;14.28;100.00
71004;BME280;59025;42.050;-8.660;2022-12-18T08:56:04;101163.59;;;14.32;100.00
71004;BME280;59025;42.050;-8.660;2022-12-18T08:58:32;101169.50;;;14.39;100.00
71004;BME280;59025;42.050;-8.660;2022-12-18T09:01:00;101169.94;;;14.36;100.00
71004;BME280;59025;42.050;-8.660;2022-12-18T09:03:28;101160.97;;;14.39;100.00
71004;BME280;59025;42.050;-8.660;2022-12-18T09:05:56;101183.78;;;14.48;100.00
71004;BME280;59025;42.050;-8.660;2022-12-18T09:08:25;101171.41;;;14.50;100.00
71004;BME280;59025;42.050;-8.660;2022-12-18T09:10:53;101153.16;;;14.45;100.00
71004;BME280;59025;42.050;-8.660;2022-12-18T09:13:21;101152.16;;;14.46;100.00
71004;BME280;59025;42.050;-8.660;2022-12-18T09:15:50;101148.75;;;14.46;100.00
71004;BME280;59025;42.050;-8.660;2022-12-18T09:18:21;101140.22;;;14.45;100.00
71004;BME280;59025;42.050;-8.660;2022-12-18T09:20:48;101142.16;;;14.50;100.00
71004;BME280;59025;42.050;-8.660;2022-12-18T09:23:18;101145.28;;;14.58;100.00
71004;BME280;59025;42.050;-8.660;2022-12-18T09:25:47;101145.28;;;14.58;100.00
71004;BME280;59025;42.050;-8.660;2022-12-18T09:28:17;101159.63;;;14.61;100.00
71004;BME280;59025;42.050;-8.660;2022-12-18T09:30:46;101163.84;;;14.80;100.00
71004;BME280;59025;42.050;-8.660;2022-12-18T09:33:14;101167.31;;;14.67;100.00
71004;BME280;59025;42.050;-8.660;2022-12-18T09:35:43;101167.13;;;14.69;100.00
71004;BME280;59025;42.050;-8.660;2022-12-18T09:38:13;101182.56;;;14.57;100.00
71004;BME280;59025;42.050;-8.660;2022-12-18T09:40:42;101183.38;;;14.51;100.00
71004;BME280;59025;42.050;-8.660;2022-12-18T09:43:15;101172.50;;;14.67;100.00
71004;BME280;59025;42.050;-8.660;2022-12-18T09:45:47;101168.69;;;14.70;100.00
71004;BME280;59025;42.050;-8.660;2022-12-18T09:48:19;101177.84;;;14.72;100.00
71004;BME280;59025;42.050;-8.660;2022-12-18T09:50:50;101176.06;;;14.73;100.00
71004;BME280;59025;42.050;-8.660;2022-12-18T09:53:21;101183.47;;;14.69;100.00
71004;BME280;59025;42.050;-8.660;2022-12-18T09:55:51;101174.50;;;14.65;100.00
71004;BME280;59025;42.050;-8.660;2022-12-18T09:58:27;101176.16;;;14.60;100.00
71004;BME280;59025;42.050;-8.660;2022-12-18T10:00:55;101167.00;;;14.57;100.00
71004;BME280;59025;42.050;-8.660;2022-12-18T10:03:23;101173.13;;;14.63;100.00
71004;BME280;59025;42.050;-8.660;2022-12-18T10:05:57;101180.88;;;14.69;100.00
71004;BME280;59025;42.050;-8.660;2022-12-18T10:08:35;101183.50;;;14.63;100.00
71004;BME280;59025;42.050;-8.660;2022-12-18T10:11:22;101180.69;;;14.64;100.00
71004;BME280;59025;42.050;-8.660;2022-12-18T10:13:59;101203.53;;;14.74;100.00
71004;BME280;59025;42.050;-8.660;2022-12-18T10:16:35;101193.75;;;14.76;100.00
71004;BME280;59025;42.050;-8.660;2022-12-18T10:19:22;101206.88;;;14.81;100.00
71004;BME280;59025;42.050;-8.660;2022-12-18T10:21:57;101203.72;;;14.79;100.00
71004;BME280;59025;42.050;-8.660;2022-12-18T10:24:33;101207.47;;;14.83;100.00
71004;BME280;59025;42.050;-8.660;2022-12-18T10:27:12;101213.75;;;14.69;100.00
71004;BME280;59025;42.050;-8.660;2022-12-18T10:29:44;101228.09;;;14.65;100.00
71004;BME280;59025;42.050;-8.660;2022-12-18T10:32:15;101225.13;;;14.61;100.00
71004;BME280;59025;42.050;-8.660;2022-12-18T10:34:47;101231.97;;;14.56;100.00
71004;BME280;59025;42.050;-8.660;2022-12-18T10:37:17;101254.69;;;14.54;100.00
71004;BME280;59025;42.050;-8.660;2022-12-18T10:39:45;101241.78;;;14.41;100.00
71004;BME280;59025;42.050;-8.660;2022-12-18T10:42:17;101251.31;;;14.47;100.00
71004;BME280;59025;42.050;-8.660;2022-12-18T10:45:01;101264.50;;;14.45;100.00
71004;BME280;59025;42.050;-8.660;2022-12-18T10:47:29;101259.97;;;14.34;100.00
71004;BME280;59025;42.050;-8.660;2022-12-18T10:49:57;101257.19;;;14.29;100.00
71004;BME280;59025;42.050;-8.660;2022-12-18T10:52:25;101251.38;;;14.34;100.00
71004;BME280;59025;42.050;-8.660;2022-12-18T10:54:55;101242.41;;;14.36;100.00
71004;BME280;59025;42.050;-8.660;2022-12-18T10:57:33;101239.25;;;14.34;100.00
71004;BME280;59025;42.050;-8.660;2022-12-18T11:00:24;101237.88;;;14.32;100.00
71004;BME280;59025;42.050;-8.660;2022-12-18T11:02:53;101228.91;;;14.34;100.00
71004;BME280;59025;42.050;-8.660;2022-12-18T11:05:27;101228.19;;;14.52;100.00
71004;BME280;59025;42.050;-8.660;2022-12-18T11:07:55;101226.75;;;14.62;100.00
71004;BME280;59025;42.050;-8.660;2022-12-18T11:10:27;101223.38;;;14.55;100.00
71004;BME280;59025;42.050;-8.660;2022-12-18T11:12:55;101214.75;;;14.68;100.00
71004;BME280;59025;42.050;-8.660;2022-12-18T11:15:27;101206.56;;;14.71;100.00
71004;BME280;59025;42.050;-8.660;2022-12-18T11:17:56;101200.59;;;14.70;100.00
71004;BME280;59025;42.050;-8.660;2022-12-18T11:20:31;101199.56;;;14.71;100.00
71004;BME280;59025;42.050;-8.660;2022-12-18T11:23:01;101196.22;;;14.71;100.00
71004;BME280;59025;42.050;-8.660;2022-12-18T11:25:30;101199.16;;;14.74;100.00
71004;BME280;59025;42.050;-8.660;2022-12-18T11:28:00;101199.91;;;14.81;100.00
71004;BME280;59025;42.050;-8.660;2022-12-18T11:30:30;101182.94;;;14.85;100.00
71004;BME280;59025;42.050;-8.660;2022-12-18T11:33:02;101175.22;;;15.03;100.00
71004;BME280;59025;42.050;-8.660;2022-12-18T11:35:45;101178.28;;;14.94;100.00
71004;BME280;59025;42.050;-8.660;2022-12-18T11:38:21;101192.34;;;15.04;100.00
71004;BME280;59025;42.050;-8.660;2022-12-18T11:40:54;101178.22;;;15.00;100.00
71004;BME280;59025;42.050;-8.660;2022-12-18T11:43:28;101191.28;;;15.12;100.00
71004;BME280;59025;42.050;-8.660;2022-12-18T11:48:33;101181.16;;;15.04;100.00
71004;BME280;59025;42.050;-8.660;2022-12-18T11:51:04;101172.41;;;15.05;100.00
71004;BME280;59025;42.050;-8.660;2022-12-18T11:53:32;101159.47;;;15.05;100.00
71004;BME280;59025;42.050;-8.660;2022-12-18T11:56:25;101142.44;;;15.09;100.00
71004;BME280;59025;42.050;-8.660;2022-12-18T11:58:57;101149.31;;;15.21;100.00
71004;BME280;59025;42.050;-8.660;2022-12-18T12:01:39;101148.44;;;15.27;100.00
71004;BME280;59025;42.050;-8.660;2022-12-18T12:04:35;101142.34;;;15.22;100.00
71004;BME280;59025;42.050;-8.660;2022-12-18T12:07:18;101150.75;;;15.17;100.00
71004;BME280;59025;42.050;-8.660;2022-12-18T12:09:55;101148.50;;;15.21;100.00
71004;BME280;59025;42.050;-8.660;2022-12-18T12:12:35;101141.84;;;15.13;100.00
71004;BME280;59025;42.050;-8.660;2022-12-18T12:15:21;101135.84;;;15.13;100.00
71004;BME280;59025;42.050;-8.660;2022-12-18T12:17:53;101149.00;;;15.11;100.00
71004;BME280;59025;42.050;-8.660;2022-12-18T12:20:33;101144.13;;;15.03;100.00
71004;BME280;59025;42.050;-8.660;2022-12-18T12:23:14;101146.41;;;15.11;100.00
71004;BME280;59025;42.050;-8.660;2022-12-18T12:25:46;101151.03;;;15.09;100.00
71004;BME280;59025;42.050;-8.660;2022-12-18T12:28:21;101139.25;;;15.13;100.00
71004;BME280;59025;42.050;-8.660;2022-12-18T12:31:00;101137.50;;;15.07;100.00
71004;BME280;59025;42.050;-8.660;2022-12-18T12:33:37;101146.25;;;15.06;100.00
71004;BME280;59025;42.050;-8.660;2022-12-18T12:36:14;101146.63;;;15.10;100.00
71004;BME280;59025;42.050;-8.660;2022-12-18T12:38:47;101147.56;;;14.97;100.00
71004;BME280;59025;42.050;-8.660;2022-12-18T12:41:18;101132.53;;;15.06;100.00
71004;BME280;59025;42.050;-8.660;2022-12-18T12:44:04;101132.72;;;15.04;100.00
71004;BME280;59025;42.050;-8.660;2022-12-18T12:46:35;101129.50;;;15.09;100.00
71004;BME280;59025;42.050;-8.660;2022-12-18T12:49:09;101125.13;;;15.09;100.00
71004;BME280;59025;42.050;-8.660;2022-12-18T12:51:42;101111.59;;;15.07;100.00
71004;BME280;59025;42.050;-8.660;2022-12-18T12:54:15;101104.44;;;15.21;100.00